createdAt,value
2018-06-19T00:02:40.177Z,95710.19
2018-06-19T00:05:45.546Z,95706.97
2018-06-19T00:08:50.075Z,95703.86
2018-06-19T00:11:54.420Z,95705.69
2018-06-19T00:14:58.773Z,95708.47
2018-06-19T00:18:14.433Z,95704.23
2018-06-19T00:21:26.879Z,95707.80
2018-06-19T00:24:31.325Z,95708.70
2018-06-19T00:27:35.948Z,95708.78
2018-06-19T00:30:40.393Z,95713.35
2018-06-19T00:33:44.683Z,95710.02
2018-06-19T00:36:48.996Z,95707.45
2018-06-19T00:39:53.330Z,95712.89
2018-06-19T00:42:57.594Z,95722.38
2018-06-19T00:46:02.270Z,95712.70
2018-06-19T00:49:07.116Z,95709.92
2018-06-19T00:52:11.493Z,95703.70
2018-06-19T00:55:15.951Z,95695.69
2018-06-19T00:58:20.302Z,95701.62
2018-06-19T01:01:24.626Z,95705.86
2018-06-19T01:04:28.987Z,95708.17
2018-06-19T01:07:33.275Z,95703.28
2018-06-19T01:10:37.593Z,95702.66
2018-06-19T01:13:41.885Z,95706.56
2018-06-19T01:16:46.246Z,95702.13
2018-06-19T01:19:50.773Z,95713.89
2018-06-19T01:22:55.614Z,95712.36
2018-06-19T01:28:57.806Z,95714.75
2018-06-19T01:32:02.119Z,95709.09
2018-06-19T01:35:07.001Z,95716.64
2018-06-19T01:38:11.557Z,95715.73
2018-06-19T01:41:15.819Z,95714.02
2018-06-19T01:44:20.119Z,95718.58
2018-06-19T01:47:24.575Z,95725.56
2018-06-19T01:50:28.894Z,95725.94
2018-06-19T01:53:33.707Z,95723.70
2018-06-19T01:56:38.089Z,95722.82
2018-06-19T01:59:42.578Z,95725.95
2018-06-19T02:02:46.882Z,95726.50
2018-06-19T02:05:51.186Z,95724.94
2018-06-19T02:08:55.457Z,95728.47
2018-06-19T02:11:59.752Z,95735.37
2018-06-19T02:15:04.067Z,95729.34
2018-06-19T02:18:08.369Z,95733.33
2018-06-19T02:21:12.711Z,95743.36
2018-06-19T02:24:17.060Z,95738.45
2018-06-19T02:27:21.369Z,95738.96
2018-06-19T02:30:25.685Z,95741.22
2018-06-19T02:33:30.413Z,95746.65
2018-06-19T02:36:34.737Z,95746.07
2018-06-19T02:39:39.018Z,95743.08
2018-06-19T02:42:43.405Z,95744.97
2018-06-19T02:45:47.706Z,95746.41
2018-06-19T02:48:52.187Z,95757.46
2018-06-19T02:51:56.506Z,95752.48
2018-06-19T02:55:00.901Z,95752.32
2018-06-19T02:58:05.304Z,95751.11
2018-06-19T03:01:09.616Z,95747.59
2018-06-19T03:04:14.054Z,95755.20
2018-06-19T03:07:18.342Z,95753.44
2018-06-19T03:10:22.621Z,95759.34
2018-06-19T03:13:27.282Z,95760.90
2018-06-19T03:16:32.111Z,95762.02
2018-06-19T03:19:36.403Z,95765.69
2018-06-19T03:22:40.811Z,95773.56
2018-06-19T03:25:45.733Z,95774.66
2018-06-19T03:28:50.104Z,95777.31
2018-06-19T03:31:54.522Z,95785.64
2018-06-19T03:34:58.945Z,95786.68
2018-06-19T03:38:03.358Z,95791.25
2018-06-19T03:41:07.685Z,95792.08
2018-06-19T03:44:12.313Z,95794.89
2018-06-19T03:47:16.667Z,95797.38
2018-06-19T03:50:21.058Z,95786.59
2018-06-19T03:53:25.649Z,95794.16
2018-06-19T03:56:29.991Z,95797.50
2018-06-19T03:59:34.520Z,95795.94
2018-06-19T04:02:39.554Z,95805.19
2018-06-19T04:05:43.854Z,95805.86
2018-06-19T04:08:48.255Z,95804.62
2018-06-19T04:11:52.890Z,95808.09
2018-06-19T04:14:57.615Z,95811.77
2018-06-19T04:18:02.040Z,95815.55
2018-06-19T04:21:07.417Z,95811.30
2018-06-19T04:24:11.772Z,95813.64
2018-06-19T04:27:16.070Z,95807.83
2018-06-19T04:30:20.387Z,95809.50
2018-06-19T04:33:24.696Z,95816.87
2018-06-19T04:36:29.163Z,95811.84
2018-06-19T04:39:33.517Z,95805.02
2018-06-19T04:42:37.845Z,95813.14
2018-06-19T04:45:42.266Z,95809.61
2018-06-19T04:48:47.094Z,95814.23
2018-06-19T04:51:51.457Z,95820.59
2018-06-19T04:55:05.991Z,95819.59
2018-06-19T04:58:12.274Z,95822.49
2018-06-19T05:01:16.618Z,95822.16
2018-06-19T05:04:20.980Z,95821.77
2018-06-19T05:07:25.311Z,95814.44
2018-06-19T05:10:29.432Z,95830.17
2018-06-19T05:13:34.661Z,95833.41
2018-06-19T05:16:40.371Z,95838.31
2018-06-19T05:19:44.778Z,95843.88
2018-06-19T05:22:50.174Z,95839.45
2018-06-19T05:25:54.847Z,95844.21
2018-06-19T05:28:59.653Z,95845.84
2018-06-19T05:32:04.101Z,95843.88
2018-06-19T05:35:10.626Z,95842.87
2018-06-19T05:38:15.199Z,95850.76
2018-06-19T05:41:19.810Z,95855.20
2018-06-19T05:44:24.371Z,95858.97
2018-06-19T05:47:29.124Z,95851.11
2018-06-19T05:50:33.575Z,95866.88
2018-06-19T05:53:38.037Z,95864.88
2018-06-19T05:56:42.462Z,95862.31
2018-06-19T05:59:47.699Z,95860.20
2018-06-19T06:02:53.291Z,95858.71
2018-06-19T06:05:57.884Z,95860.23
2018-06-19T06:09:02.239Z,95856.64
2018-06-19T06:12:06.945Z,95873.70
2018-06-19T06:15:11.673Z,95867.96
2018-06-19T06:18:16.782Z,95866.20
2018-06-19T06:21:21.364Z,95866.05
2018-06-19T06:24:25.775Z,95863.79
2018-06-19T06:32:54.155Z,95883.30
2018-06-19T06:35:59.805Z,95896.78
2018-06-19T06:39:05.202Z,95891.44
2018-06-19T06:42:09.514Z,95895.64
2018-06-19T06:45:14.255Z,95902.72
2018-06-19T06:48:19.400Z,95896.02
2018-06-19T06:51:23.797Z,95896.36
2018-06-19T06:54:28.847Z,95903.23
2018-06-19T06:57:33.397Z,95898.20
2018-06-19T07:00:37.715Z,95899.16
2018-06-19T07:03:42.503Z,95895.79
2018-06-19T07:06:46.775Z,95891.81
2018-06-19T07:09:51.120Z,95899.34
2018-06-19T07:12:55.405Z,95902.55
2018-06-19T07:15:59.949Z,95897.73
2018-06-19T07:19:04.403Z,95901.03
2018-06-19T07:22:08.775Z,95894.13
2018-06-19T07:25:13.375Z,95897.67
2018-06-19T07:28:17.757Z,95894.90
2018-06-19T07:31:22.073Z,95896.73
2018-06-19T07:34:26.562Z,95895.53
2018-06-19T07:37:30.837Z,95904.00
2018-06-19T07:40:35.137Z,95894.41
2018-06-19T07:43:39.425Z,95894.80
2018-06-19T07:46:43.873Z,95894.94
2018-06-19T07:49:48.223Z,95887.92
2018-06-19T07:52:52.674Z,95890.36
2018-06-19T07:55:57.074Z,95884.39
2018-06-19T07:59:01.402Z,95890.50
2018-06-19T08:02:05.929Z,95887.11
2018-06-19T08:05:10.394Z,95885.94
2018-06-19T08:08:14.719Z,95890.99
2018-06-19T08:11:19.051Z,95890.88
2018-06-19T08:14:23.729Z,95881.88
2018-06-19T08:17:28.289Z,95885.25
2018-06-19T08:20:32.695Z,95890.68
2018-06-19T08:23:37.143Z,95893.37
2018-06-19T08:26:41.589Z,95886.34
2018-06-19T08:29:46.109Z,95888.84
2018-06-19T08:32:50.453Z,95890.05
2018-06-19T08:35:54.837Z,95889.05
2018-06-19T08:38:59.193Z,95893.90
2018-06-19T08:42:03.732Z,95888.48
2018-06-19T08:45:08.097Z,95883.55
2018-06-19T08:48:12.422Z,95889.34
2018-06-19T08:51:17.102Z,95880.45
2018-06-19T08:54:21.624Z,95875.23
2018-06-19T08:57:28.914Z,95872.13
2018-06-19T09:00:33.375Z,95869.22
2018-06-19T09:03:37.777Z,95872.95
2018-06-19T09:06:42.419Z,95869.02
2018-06-19T09:09:48.217Z,95863.77
2018-06-19T09:12:52.561Z,95866.34
2018-06-19T09:15:57.149Z,95872.59
2018-06-19T09:19:01.812Z,95869.72
2018-06-19T09:22:06.242Z,95874.95
2018-06-19T09:25:10.632Z,95875.30
2018-06-19T09:28:14.966Z,95866.18
2018-06-19T09:31:19.300Z,95859.66
2018-06-19T09:34:23.986Z,95861.84
2018-06-19T09:37:28.435Z,95860.48
2018-06-19T09:40:32.920Z,95862.83
2018-06-19T09:43:37.248Z,95863.48
2018-06-19T09:46:42.087Z,95863.00
2018-06-19T09:49:47.467Z,95861.23
2018-06-19T09:52:51.958Z,95856.50
2018-06-19T09:55:56.899Z,95865.34
2018-06-19T09:59:01.325Z,95862.65
2018-06-19T10:02:05.975Z,95864.32
2018-06-19T10:05:10.366Z,95861.36
2018-06-19T10:08:14.768Z,95854.87
2018-06-19T10:11:19.278Z,95847.91
2018-06-19T10:14:23.688Z,95849.50
2018-06-19T10:17:29.027Z,95850.45
2018-06-19T10:20:33.379Z,95846.22
2018-06-19T10:23:37.919Z,95849.57
2018-06-19T10:26:42.458Z,95845.80
2018-06-19T10:29:47.841Z,95843.47
2018-06-19T10:32:52.298Z,95849.58
2018-06-19T10:35:56.808Z,95842.52
2018-06-19T10:39:01.193Z,95840.04
2018-06-19T10:42:05.514Z,95841.51
2018-06-19T10:45:09.906Z,95844.81
2018-06-19T10:48:14.329Z,95842.89
2018-06-19T10:51:18.902Z,95849.08
2018-06-19T10:54:23.378Z,95840.56
2018-06-19T10:57:27.718Z,95844.41
2018-06-19T11:00:32.013Z,95837.89
2018-06-19T11:03:36.576Z,95836.53
2018-06-19T11:06:40.919Z,95836.47
2018-06-19T11:09:45.475Z,95838.02
2018-06-19T11:12:49.892Z,95831.67
2018-06-19T11:15:54.259Z,95835.34
2018-06-19T11:18:58.795Z,95841.07
2018-06-19T11:22:03.654Z,95832.02
2018-06-19T11:25:07.992Z,95836.86
2018-06-19T11:28:12.449Z,95836.70
2018-06-19T11:31:17.782Z,95837.86
2018-06-19T11:34:22.162Z,95837.55
2018-06-19T11:37:26.563Z,95836.98
2018-06-19T11:40:30.866Z,95827.26
2018-06-19T11:43:35.689Z,95835.28
2018-06-19T11:46:40.734Z,95836.69
2018-06-19T11:49:45.079Z,95835.16
2018-06-19T11:52:49.490Z,95839.99
2018-06-19T11:55:57.164Z,95844.03
2018-06-19T11:59:04.761Z,95841.31
2018-06-19T12:02:09.166Z,95835.53
2018-06-19T12:05:13.910Z,95829.94
2018-06-19T12:08:19.077Z,95832.56
2018-06-19T12:11:23.464Z,95831.84
2018-06-19T12:14:27.849Z,95828.75
2018-06-19T12:17:32.272Z,95831.46
2018-06-19T12:20:36.673Z,95823.72
2018-06-19T12:23:41.232Z,95821.20
2018-06-19T12:26:45.564Z,95824.44
2018-06-19T12:29:50.179Z,95821.80
2018-06-19T12:32:54.632Z,95824.87
2018-06-19T12:35:59.026Z,95830.47
2018-06-19T12:39:03.552Z,95824.20
2018-06-19T12:42:08.054Z,95822.95
2018-06-19T12:45:12.461Z,95826.02
2018-06-19T12:48:17.665Z,95819.09
2018-06-19T12:52:04.557Z,95817.52
2018-06-19T12:55:40.911Z,95813.46
2018-06-19T12:58:46.390Z,95808.98
2018-06-19T13:01:50.820Z,95811.34
2018-06-19T13:05:12.784Z,95807.58
2018-06-19T13:08:18.237Z,95807.66
2018-06-19T13:15:07.898Z,95802.42
2018-06-19T13:18:31.652Z,95797.97
2018-06-19T13:21:36.082Z,95795.27
2018-06-19T13:24:40.760Z,95798.93
2018-06-19T13:27:45.474Z,95796.06
2018-06-19T13:31:08.193Z,95791.59
2018-06-19T13:34:12.643Z,95794.13
2018-06-19T13:37:17.392Z,95786.17
2018-06-19T13:42:34.840Z,95787.90
2018-06-19T13:45:39.360Z,95787.94
2018-06-19T13:48:43.847Z,95782.08
2018-06-19T13:51:48.421Z,95785.62
2018-06-19T13:54:53.034Z,95784.42
2018-06-19T13:58:19.606Z,95778.44
2018-06-19T14:01:24.736Z,95782.80
2018-06-19T14:04:29.179Z,95770.43
2018-06-19T14:08:05.031Z,95770.50
2018-06-19T14:11:26.284Z,95772.43
2018-06-19T14:14:30.918Z,95765.92
2018-06-19T14:17:35.550Z,95774.17
2018-06-19T14:20:40.744Z,95765.08
2018-06-19T14:23:45.066Z,95760.03
2018-06-19T14:26:49.582Z,95766.00
2018-06-19T14:29:54.536Z,95762.30
2018-06-19T14:33:00.366Z,95765.34
2018-06-19T14:36:04.703Z,95762.46
2018-06-19T14:39:09.346Z,95760.44
2018-06-19T14:42:13.639Z,95758.78
2018-06-19T14:45:17.911Z,95757.26
2018-06-19T14:48:22.296Z,95757.65
2018-06-19T14:51:26.817Z,95754.87
2018-06-19T14:54:31.189Z,95747.98
2018-06-19T14:57:35.909Z,95743.17
2018-06-19T15:00:40.536Z,95739.30
2018-06-19T15:03:44.822Z,95740.44
2018-06-19T15:06:49.190Z,95740.47
2018-06-19T15:09:53.563Z,95738.45
2018-06-19T15:12:57.794Z,95737.97
2018-06-19T15:16:02.694Z,95739.69
2018-06-19T15:19:07.182Z,95735.98
2018-06-19T15:22:11.509Z,95736.89
2018-06-19T15:25:16.171Z,95741.70
2018-06-19T15:28:20.666Z,95739.11
2018-06-19T15:31:25.145Z,95738.17
2018-06-19T15:35:00.831Z,95729.70
2018-06-19T15:38:05.925Z,95734.59
2018-06-19T15:41:10.675Z,95732.73
2018-06-19T15:44:15.133Z,95727.30
2018-06-19T15:47:19.630Z,95734.09
2018-06-19T15:50:24.111Z,95728.19
2018-06-19T15:53:28.592Z,95722.33
2018-06-19T15:57:35.805Z,95723.80
2018-06-19T16:00:39.995Z,95718.59
2018-06-19T16:03:45.115Z,95725.81
2018-06-19T16:06:49.551Z,95726.56
2018-06-19T16:09:54.057Z,95724.28
2018-06-19T16:12:58.447Z,95725.24
2018-06-19T16:16:02.892Z,95723.52
2018-06-19T16:19:07.458Z,95726.61
2018-06-19T16:22:11.764Z,95726.04
2018-06-19T16:25:16.154Z,95719.65
2018-06-19T16:28:20.553Z,95718.49
2018-06-19T16:31:26.362Z,95720.99
2018-06-19T16:34:30.766Z,95724.84
2018-06-19T16:37:35.406Z,95720.34
2018-06-19T16:40:39.943Z,95720.73
2018-06-19T16:43:44.598Z,95724.70
2018-06-19T16:46:49.050Z,95718.22
2018-06-19T16:49:53.498Z,95725.08
2018-06-19T16:52:58.117Z,95716.13
2018-06-19T16:56:02.546Z,95719.30
2018-06-19T16:59:06.981Z,95715.63
2018-06-19T17:02:11.757Z,95722.50
2018-06-19T17:05:16.185Z,95719.19
2018-06-19T17:08:20.570Z,95722.04
2018-06-19T17:11:25.019Z,95722.85
2018-06-19T17:14:29.466Z,95718.63
2018-06-19T17:17:34.063Z,95716.14
2018-06-19T17:20:38.736Z,95726.22
2018-06-19T17:23:43.250Z,95725.25
2018-06-19T17:26:47.721Z,95720.84
2018-06-19T17:29:52.131Z,95721.97
2018-06-19T17:32:56.481Z,95721.39
2018-06-19T17:36:01.026Z,95719.24
2018-06-19T17:39:09.832Z,95720.22
2018-06-19T17:42:15.998Z,95717.13
2018-06-19T17:45:21.274Z,95720.40
2018-06-19T17:48:25.989Z,95716.14
2018-06-19T17:51:30.630Z,95718.66
2018-06-19T17:54:35.426Z,95714.20
2018-06-19T17:57:40.060Z,95715.14
2018-06-19T18:00:44.749Z,95713.60
2018-06-19T18:03:50.724Z,95715.73
2018-06-19T18:06:55.302Z,95713.64
2018-06-19T18:09:59.720Z,95713.23
2018-06-19T18:13:04.373Z,95710.94
2018-06-19T18:16:08.922Z,95708.99
2018-06-19T18:19:13.371Z,95708.02
2018-06-19T18:22:19.256Z,95708.99
2018-06-19T18:25:24.297Z,95710.53
2018-06-19T18:28:28.947Z,95709.59
2018-06-19T18:31:33.858Z,95709.37
2018-06-19T18:34:38.317Z,95717.09
2018-06-19T18:37:42.817Z,95717.87
2018-06-19T18:40:47.599Z,95716.31
2018-06-19T18:43:52.166Z,95713.98
2018-06-19T18:46:56.855Z,95716.45
2018-06-19T18:50:01.296Z,95716.04
2018-06-19T18:53:06.238Z,95713.64
2018-06-19T18:56:10.901Z,95715.57
2018-06-19T18:59:15.372Z,95717.44
2018-06-19T19:02:19.785Z,95721.47
2018-06-19T19:05:24.131Z,95726.84
2018-06-19T19:08:28.538Z,95726.56
2018-06-19T19:11:33.163Z,95729.97
2018-06-19T19:14:42.935Z,95726.62
2018-06-19T19:17:53.214Z,95732.47
2018-06-19T19:20:58.527Z,95736.41
2018-06-19T19:24:02.761Z,95740.00
2018-06-19T19:27:12.617Z,95747.34
2018-06-19T19:30:17.372Z,95750.06
2018-06-19T19:33:21.761Z,95745.92
2018-06-19T19:36:31.696Z,95750.63
2018-06-19T19:39:36.260Z,95752.47
2018-06-19T19:42:42.545Z,95753.92
2018-06-19T19:45:48.361Z,95753.45
2018-06-19T19:48:57.256Z,95757.98
2018-06-19T19:52:01.818Z,95761.70
2018-06-19T19:55:06.193Z,95762.10
2018-06-19T19:58:15.780Z,95760.03
2018-06-19T20:01:20.421Z,95764.94
2018-06-19T20:04:24.793Z,95764.75
2018-06-19T20:07:29.202Z,95760.44
2018-06-19T20:10:33.647Z,95759.06
2018-06-19T20:13:38.240Z,95761.08
2018-06-19T20:16:42.803Z,95761.55
2018-06-19T20:19:47.294Z,95760.44
2018-06-19T20:22:51.718Z,95762.81
2018-06-19T20:25:56.037Z,95764.39
2018-06-19T20:29:01.790Z,95763.71
2018-06-19T20:32:06.275Z,95761.44
2018-06-19T20:35:10.704Z,95765.28
2018-06-19T20:38:15.154Z,95764.38
2018-06-19T20:41:19.604Z,95766.67
2018-06-19T20:44:25.033Z,95769.20
2018-06-19T20:47:29.707Z,95769.51
2018-06-19T20:50:34.035Z,95763.23
2018-06-19T20:53:38.515Z,95766.98
2018-06-19T20:56:43.486Z,95763.39
2018-06-19T20:59:48.082Z,95764.30
2018-06-19T21:02:52.832Z,95767.77
2018-06-19T21:05:57.161Z,95765.86
2018-06-19T21:09:01.684Z,95764.89
2018-06-19T21:12:06.093Z,95759.00
2018-06-19T21:15:10.978Z,95756.88
2018-06-19T21:18:15.402Z,95771.72
2018-06-19T21:21:20.352Z,95772.58
2018-06-19T21:24:24.292Z,95772.96
2018-06-19T21:27:28.770Z,95770.47
2018-06-19T21:30:34.394Z,95770.89
2018-06-19T21:33:38.855Z,95772.86
2018-06-19T21:36:44.328Z,95763.87
2018-06-19T21:39:48.758Z,95764.50
2018-06-19T21:42:54.201Z,95770.27
2018-06-19T21:45:58.533Z,95766.68
2018-06-19T21:49:02.846Z,95770.83
2018-06-19T21:52:08.524Z,95769.20
2018-06-19T21:55:12.828Z,95762.90
2018-06-19T21:58:17.193Z,95762.67
2018-06-19T22:01:21.725Z,95758.90
2018-06-19T22:04:26.196Z,95755.72
2018-06-19T22:07:30.922Z,95759.11
2018-06-19T22:10:35.968Z,95756.89
2018-06-19T22:13:40.401Z,95759.28
2018-06-19T22:16:45.638Z,95768.72
2018-06-19T22:19:50.173Z,95769.63
2018-06-19T22:22:54.514Z,95760.58
2018-06-19T22:25:58.830Z,95762.26
2018-06-19T22:29:03.151Z,95764.59
2018-06-19T22:32:07.567Z,95764.38
2018-06-19T22:35:11.846Z,95760.94
2018-06-19T22:38:16.806Z,95757.03
2018-06-19T22:41:22.429Z,95757.30
2018-06-19T22:44:26.785Z,95757.34
2018-06-19T22:47:31.067Z,95757.61
2018-06-19T22:50:35.850Z,95754.05
2018-06-19T22:53:40.265Z,95755.65
2018-06-19T22:56:44.782Z,95752.97
2018-06-19T22:59:49.341Z,95752.19
2018-06-19T23:03:02.062Z,95744.97
2018-06-19T23:06:06.565Z,95747.66
2018-06-19T23:09:11.370Z,95746.59
2018-06-19T23:12:15.760Z,95753.95
2018-06-19T23:15:20.122Z,95753.55
2018-06-19T23:18:25.729Z,95749.08
2018-06-19T23:21:30.035Z,95756.34
2018-06-19T23:24:34.516Z,95754.14
2018-06-19T23:27:38.824Z,95750.91
2018-06-19T23:30:43.441Z,95749.20
2018-06-19T23:33:47.796Z,95746.33
2018-06-19T23:36:52.102Z,95742.98
2018-06-19T23:39:56.540Z,95747.89
2018-06-19T23:43:01.533Z,95745.69
2018-06-19T23:46:05.841Z,95748.73
2018-06-19T23:49:10.173Z,95747.98
2018-06-19T23:52:14.881Z,95746.54
2018-06-19T23:55:19.234Z,95736.16
2018-06-19T23:58:23.639Z,95740.18
